Latest Coastal Weather Observations for Point Fawcett

IDD60701

Issued at 8:31 am CST Tuesday 9 February 2016 (issued every 10 minutes, with the page automatically refreshed every 10 minutes)

About coastal observations | Map of coastal stations | Coastal observations for NT | Marine services | Other Formats
Station Details ID: 200731 Name: POINT FAWCETT Lat: -11.76 Lon: 130.03 Height: 6.5 m
Data from the previous 72 hours. | See also: Recent months at Point Fawcett
Date/Time
CST
Temp

°C
Wind Pressure Rain
since 9am
mm
Weather Cloud Vis
km
Sea
Height
m
Swell
Dir
 
Speed
knots
Gust
knots
hPa Trend Height
m
Period
s
Dir
09/08:30am 30.2 N 7 9 1008.9 - 0.0 - - - - - - -
09/08:00am 29.3 NNW 9 11 1008.6 - 0.0 - - - - - - -
09/07:30am 28.6 NNW 7 9 1008.6 - 0.0 - - - - - - -
09/07:00am 28.1 NNW 6 8 1008.2 - 0.0 - - - - - - -
09/06:30am 27.6 NW 5 6 1007.8 - 0.0 - - - - - - -
09/06:00am 27.9 NW 5 6 1007.5 - 0.0 - - - - - - -
09/05:30am 28.2 NW 6 7 1007.3 - 0.0 - - - - - - -
09/05:00am 28.1 NW 5 6 1007.1 - 0.0 - - - - - - -
09/04:30am 28.0 NW 5 6 1007.0 - 0.0 - - - - - - -
09/04:00am 28.4 NW 6 7 1007.1 - 0.0 - - - - - - -
09/03:30am 28.3 NNW 6 7 1007.2 - 0.0 - - - - - - -
09/03:00am 28.2 N 7 9 1007.2 - 0.0 - - - - - - -
09/02:30am 28.1 N 6 7 1007.4 - 0.0 - - - - - - -
09/02:00am 28.0 N 6 7 1007.6 - 0.0 - - - - - - -
09/01:30am 28.0 N 6 8 1007.8 - 0.0 - - - - - - -
09/01:00am 28.0 N 6 7 1008.1 - 0.0 - - - - - - -
09/12:30am 28.0 N 4 5 1008.3 - 0.0 - - - - - - -
09/12:00am 28.1 N 6 7 1008.5 - 0.0 - - - - - - -
 
Date/Time
CST
Temp

°C
Wind Pressure Rain
since 9am
mm
Weather Cloud Vis
km
Sea
Height
m
Swell
Dir
 
Speed
knots
Gust
knots
hPa Trend Height
m
Period
s
Dir
08/11:30pm 28.2 N 6 7 1008.8 - 0.0 - - - - - - -
08/11:00pm 28.3 NNW 5 6 1008.9 - 0.0 - - - - - - -
08/10:30pm 28.4 NNW 4 6 1008.6 - 0.0 - - - - - - -
08/10:00pm 28.4 NNW 5 7 1008.3 - 0.0 - - - - - - -
08/09:30pm 26.9 NW 1 6 1008.3 - 0.0 - - - - - - -
08/09:00pm 26.9 NE 1 5 1008.0 - 0.0 - - - - - - -
08/08:30pm 27.3 CALM 0 0 1007.9 - 0.0 - - - - - - -
08/08:00pm 27.6 CALM 0 0 1007.8 - 0.0 - - - - - - -
08/07:30pm 28.4 ENE 1 3 1007.5 - 0.0 - - - - - - -
08/07:00pm 28.9 NE 5 7 1007.5 - 0.0 - - - - - - -
08/06:30pm 29.1 ENE 7 11 1007.5 - 0.0 - - - - - - -
08/06:00pm 29.3 NE 8 12 1007.2 - 0.0 - - - - - - -
08/05:30pm 28.8 E 9 12 1007.2 - 0.0 - - - - - - -
08/05:00pm 29.9 NNW 4 5 1007.0 - 0.0 - - - - - - -
08/04:30pm 29.9 NNW 5 6 1006.8 - 0.0 - - - - - - -
08/04:00pm 30.0 NW 6 7 1006.9 - 0.0 - - - - - - -
08/03:30pm 30.5 NW 7 9 1006.8 - 0.0 - - - - - - -
08/03:00pm 31.1 WNW 8 11 1006.5 - 0.0 - - - - - - -
08/02:30pm 31.7 NW 5 7 1007.1 - 0.0 - - - - - - -
08/02:00pm 32.2 WNW 7 8 1007.4 - 0.0 - - - - - - -
08/01:30pm 32.3 WNW 7 9 1007.6 - 0.0 - - - - - - -
08/01:00pm 31.8 NNW 5 7 1008.2 - 0.0 - - - - - - -
08/12:30pm 31.9 NNW 5 6 1008.7 - 0.0 - - - - - - -
08/12:00pm 32.2 N 6 9 1008.7 - 0.0 - - - - - - -
08/11:30am 32.8 N 8 11 1008.7 - 0.0 - - - - - - -
08/11:00am 32.5 N 7 9 1009.0 - 0.0 - - - - - - -
08/10:30am 31.9 N 7 9 1009.2 - 0.0 - - - - - - -
08/10:00am 31.8 N 5 7 1009.3 - 0.0 - - - - - - -
08/09:30am 31.1 N 4 5 1009.4 - 0.0 - - - - - - -
08/09:00am 30.5 N 3 4 1009.2 - 0.0 - - - - - - -
08/08:30am 29.3 NNW 5 6 1009.1 - 0.0 - - - - - - -
08/08:00am 28.8 NNW 6 8 1009.0 - 0.0 - - - - - - -
08/07:30am 28.4 NW 5 6 1008.7 - 0.0 - - - - - - -
08/07:00am 28.2 NW 6 7 1008.0 - 0.0 - - - - - - -
08/06:30am 28.1 NNW 5 7 1008.0 - 0.0 - - - - - - -
08/06:00am 28.2 NNW 6 7 1007.8 - 0.0 - - - - - - -
08/05:30am 28.3 NNW 6 8 1007.8 - 0.0 - - - - - - -
08/05:00am 28.3 NNW 6 7 1007.5 - 0.0 - - - - - - -
08/04:30am 28.3 NNW 7 8 1007.5 - 0.0 - - - - - - -
08/04:00am 27.9 NNW 7 9 1007.5 - 0.0 - - - - - - -
08/03:30am 26.2 NW 5 7 1007.8 - 0.0 - - - - - - -
08/03:00am 25.5 NNW 3 4 1007.8 - 0.0 - - - - - - -
08/02:30am 26.2 NNW 5 6 1008.1 - 0.0 - - - - - - -
08/02:00am 25.7 ENE 3 4 1008.4 - 0.0 - - - - - - -
08/01:30am 25.8 ENE 3 4 1008.5 - 0.0 - - - - - - -
08/01:00am 26.1 CALM 0 0 1008.5 - 0.0 - - - - - - -
08/12:30am 26.3 CALM 0 0 1008.6 - 0.0 - - - - - - -
08/12:00am 26.7 CALM 0 0 1008.7 - 0.0 - - - - - - -
 
Date/Time
CST
Temp

°C
Wind Pressure Rain
since 9am
mm
Weather Cloud Vis
km
Sea
Height
m
Swell
Dir
 
Speed
knots
Gust
knots
hPa Trend Height
m
Period
s
Dir
07/11:30pm 27.2 NW 1 4 1008.9 - 0.0 - - - - - - -
07/11:00pm 27.7 CALM 0 3 1009.0 - 0.0 - - - - - - -
07/10:30pm 28.4 NNW 4 6 1009.0 - 0.0 - - - - - - -
07/10:00pm 27.5 ENE 2 3 1009.1 - 0.0 - - - - - - -
07/09:30pm 27.5 ESE 3 4 1008.9 - 0.0 - - - - - - -
07/09:00pm 27.8 ESE 3 3 1008.6 - 0.0 - - - - - - -
07/08:30pm 28.3 NW 1 4 1008.5 - 0.0 - - - - - - -
07/08:00pm 29.1 CALM 0 0 1007.8 - 0.0 - - - - - - -
07/07:30pm 29.9 NW 1 3 1007.4 - 0.0 - - - - - - -
07/07:00pm 30.4 WNW 4 5 1007.0 - 0.0 - - - - - - -
07/06:30pm 31.2 NW 4 6 1006.7 - 0.0 - - - - - - -
07/06:00pm 31.6 NW 5 6 1006.4 - 0.0 - - - - - - -
07/05:30pm 31.2 WNW 7 8 1006.1 - 0.0 - - - - - - -
07/05:00pm 31.2 WNW 6 8 1006.0 - 0.0 - - - - - - -
07/04:30pm 32.2 NW 8 9 1005.9 - 0.0 - - - - - - -
07/04:00pm 32.3 NW 8 9 1006.0 - 0.0 - - - - - - -
07/03:30pm 32.2 WNW 8 10 1005.7 - 0.0 - - - - - - -
07/03:00pm 32.1 WNW 8 10 1005.9 - 0.0 - - - - - - -
07/02:30pm 32.5 WNW 7 9 1006.5 - 0.0 - - - - - - -
07/02:00pm 32.1 WNW 6 8 1007.0 - 0.0 - - - - - - -
07/01:30pm 31.6 WNW 7 9 1007.4 - 0.0 - - - - - - -
07/01:00pm 32.6 WNW 7 8 1007.7 - 0.0 - - - - - - -
07/12:30pm 31.9 NNW 6 7 1008.0 - 0.0 - - - - - - -
07/12:00pm 32.0 N 5 7 1008.2 - 0.0 - - - - - - -
07/11:30am 31.9 N 7 8 1008.5 - 0.0 - - - - - - -
07/11:00am 32.2 N 5 7 1008.8 - 0.0 - - - - - - -
07/10:30am 31.5 NW 5 6 1008.8 - 0.0 - - - - - - -
07/10:00am 31.0 NNW 5 7 1008.7 - 0.0 - - - - - - -
07/09:30am 31.2 WNW 5 7 1008.6 - 0.0 - - - - - - -
07/09:00am 30.7 NW 5 7 1008.3 - 0.2 - - - - - - -
07/08:30am 30.3 WNW 6 6 1008.1 - 0.2 - - - - - - -
07/08:00am 29.4 NW 7 8 1007.7 - 0.2 - - - - - - -
07/07:30am 28.4 WNW 5 7 1007.4 - 0.2 - - - - - - -
07/07:00am 26.8 CALM 0 2 1007.2 - 0.2 - - - - - - -
07/06:30am 27.3 W 3 5 1007.0 - 0.2 - - - - - - -
07/06:00am 28.2 W 6 8 1006.6 - 0.2 - - - - - - -
07/05:30am 28.2 W 6 7 1006.6 - 0.2 - - - - - - -
07/05:00am 28.2 W 6 8 1006.3 - 0.2 - - - - - - -
07/04:30am 28.2 W 7 8 1006.0 - 0.2 - - - - - - -
07/04:00am 28.4 W 7 9 1005.8 - 0.2 - - - - - - -
07/03:30am 28.2 WNW 6 8 1005.9 - 0.2 - - - - - - -
07/03:00am 28.3 WNW 6 7 1005.8 - 0.2 - - - - - - -
07/02:30am 28.2 WNW 6 7 1006.2 - 0.2 - - - - - - -
07/02:00am 28.2 WNW 6 8 1006.7 - 0.2 - - - - - - -
07/01:30am 28.1 WNW 6 7 1007.2 - 0.2 - - - - - - -
07/01:00am 28.1 WNW 6 7 1007.5 - 0.2 - - - - - - -
07/12:30am 28.2 WNW 5 6 1007.7 - 0.2 - - - - - - -
07/12:00am 28.0 W 5 6 1008.0 - 0.2 - - - - - - -
 
Date/Time
CST
Temp

°C
Wind Pressure Rain
since 9am
mm
Weather Cloud Vis
km
Sea
Height
m
Swell
Dir
 
Speed
knots
Gust
knots
hPa Trend Height
m
Period
s
Dir
06/11:30pm 28.2 W 5 7 1008.2 - 0.2 - - - - - - -
06/11:00pm 28.0 W 5 7 1008.3 - 0.2 - - - - - - -
06/10:30pm 27.9 W 5 7 1008.3 - 0.2 - - - - - - -
06/10:00pm 27.2 W 3 4 1008.2 - 0.2 - - - - - - -
06/09:30pm 27.7 W 5 6 1008.0 - 0.2 - - - - - - -
06/09:00pm 27.2 SSW 1 3 1007.6 - 0.2 - - - - - - -
06/08:30pm 27.4 NW 1 3 1007.2 - 0.2 - - - - - - -
06/08:00pm 28.0 CALM 0 0 1006.6 - 0.2 - - - - - - -
06/07:30pm 29.0 W 4 5 1006.3 - 0.2 - - - - - - -
06/07:00pm 29.4 WSW 4 5 1005.8 - 0.2 - - - - - - -
06/06:30pm 29.7 WSW 4 6 1005.6 - 0.2 - - - - - - -
06/06:00pm 30.2 WSW 5 7 1005.4 - 0.2 - - - - - - -
06/05:30pm 31.6 SW 7 9 1005.2 - 0.2 - - - - - - -
06/05:00pm 31.7 WSW 6 8 1005.0 - 0.2 - - - - - - -
06/04:30pm 31.0 SW 6 8 1004.9 - 0.2 - - - - - - -
06/04:00pm 31.6 SW 6 10 1005.0 - 0.2 - - - - - - -
06/03:30pm 31.5 S 7 11 1005.3 - 0.2 - - - - - - -
06/03:00pm 31.4 SSW 6 9 1005.4 - 0.2 - - - - - - -
06/02:30pm 30.4 SSW 6 10 1005.8 - 0.2 - - - - - - -
06/02:00pm 31.1 SSW 7 11 1006.1 - 0.2 - - - - - - -
06/01:30pm 31.0 SW 7 10 1006.4 - 0.2 - - - - - - -
06/01:00pm 31.1 SW 9 13 1006.9 - 0.2 - - - - - - -
06/12:30pm 31.2 SSW 9 13 1007.2 - 0.2 - - - - - - -
06/12:00pm 29.8 S 6 12 1007.6 - 0.2 - - - - - - -
06/11:30am 28.8 WSW 7 10 1008.3 - 0.2 - - - - - - -
06/11:00am 28.0 SW 10 15 1009.0 - 0.2 - - - - - - -
06/10:30am 28.3 SW 10 15 1009.3 - 0.0 - - - - - - -
06/10:00am 28.3 SSW 7 10 1009.3 - 0.0 - - - - - - -
06/09:30am 28.2 SSW 6 9 1009.0 - 0.0 - - - - - - -
06/09:00am 27.8 S 6 10 1008.7 - 8.4 - - - - - - -

Other Formats:

Comma delimited format used in spreadsheet applications
http://www.bom.gov.au/fwo/IDD60701/IDD60701.94122.axf

JavaScript Object Notation format (JSON) in row-major order
http://www.bom.gov.au/fwo/IDD60701/IDD60701.94122.json